Time;durP1;ratioP1;P1;durP2;ratioP2;P2;SDS_P1;SDS_P2;PMS_P1;PMS_P2;Temp;Humidity;BMP_temperature;BMP_pressure;BME280_temperature;BME280_humidity;BME280_pressure;Samples;Min_cycle;Max_cycle;Signal;HPM_P1;HPM_P2
2020/12/11 00:03:21;;;;;;;27.87;10.27;;;;;;;;;;10210408;28;20041;-62
2020/12/11 00:08:19;;;;;;;33.47;12.53;;;;;;;;;;10163875;28;20042;-62
2020/12/11 00:13:16;;;;;;;33.63;12.67;;;;;;;;;;10195893;28;20035;-60
2020/12/11 00:18:14;;;;;;;20.97;7.57;;;;;;;;;;10183559;28;20068;-63
2020/12/11 00:23:11;;;;;;;24.53;9.03;;;;;;;;;;10188874;28;20042;-60
2020/12/11 00:28:09;;;;;;;29.70;11.57;;;;;;;;;;10180563;28;20496;-62
2020/12/11 00:33:06;;;;;;;27.30;12.30;;;;;;;;;;10191699;28;20046;-63
2020/12/11 00:38:03;;;;;;;26.90;10.77;;;;;;;;;;10178517;28;20515;-60
2020/12/11 00:43:01;;;;;;;35.47;11.17;;;;;;;;;;10161354;28;20455;-61
2020/12/11 00:47:58;;;;;;;25.63;8.57;;;;;;;;;;10171766;28;20061;-56
2020/12/11 00:52:56;;;;;;;26.43;11.43;;;;;;;;;;10193235;28;20046;-61
2020/12/11 00:57:53;;;;;;;24.03;10.47;;;;;;;;;;10181268;28;20570;-58
2020/12/11 01:02:51;;;;;;;30.40;12.63;;;;;;;;;;10194820;28;20062;-61
2020/12/11 01:07:48;;;;;;;24.00;9.63;;;;;;;;;;10211676;28;20224;-59
2020/12/11 01:12:45;;;;;;;34.63;11.70;;;;;;;;;;10197318;28;20412;-59
2020/12/11 01:17:43;;;;;;;29.73;11.63;;;;;;;;;;10184085;28;20035;-60
2020/12/11 01:22:40;;;;;;;33.72;12.25;;;;;;;;;;10163594;28;753267;-64
2020/12/11 01:27:38;;;;;;;30.17;10.23;;;;;;;;;;10205855;28;20030;-60
2020/12/11 01:32:35;;;;;;;30.03;9.63;;;;;;;;;;10202810;28;20401;-59
2020/12/11 01:37:33;;;;;;;26.73;10.87;;;;;;;;;;10183594;28;20035;-62
2020/12/11 01:42:30;;;;;;;43.28;11.98;;;;;;;;;;10194313;28;20070;-63
2020/12/11 01:47:28;;;;;;;31.37;12.90;;;;;;;;;;10202461;28;20587;-60
2020/12/11 01:52:25;;;;;;;36.60;12.93;;;;;;;;;;10198861;28;20512;-63
2020/12/11 01:57:26;;;;;;;35.20;12.33;;;;;;;;;;10201197;28;20559;-61
2020/12/11 02:02:24;;;;;;;31.00;12.02;;;;;;;;;;10184575;28;20046;-62
2020/12/11 02:07:22;;;;;;;28.38;11.30;;;;;;;;;;10194313;28;20370;-62
2020/12/11 02:12:20;;;;;;;30.90;11.57;;;;;;;;;;10200539;28;20039;-61
2020/12/11 02:17:17;;;;;;;35.03;12.80;;;;;;;;;;10203006;28;20046;-60
2020/12/11 02:22:14;;;;;;;39.13;13.57;;;;;;;;;;10197297;28;20484;-60
2020/12/11 02:27:12;;;;;;;22.10;9.60;;;;;;;;;;10197874;28;20080;-61
2020/12/11 02:32:13;;;;;;;24.47;9.27;;;;;;;;;;10199609;28;20042;-62
2020/12/11 02:37:12;;;;;;;38.78;13.35;;;;;;;;;;10191968;28;20390;-61
2020/12/11 02:42:09;;;;;;;32.13;10.75;;;;;;;;;;10200518;28;20109;-60
2020/12/11 02:47:06;;;;;;;38.57;12.23;;;;;;;;;;10198155;28;20043;-61
2020/12/11 02:52:04;;;;;;;34.47;12.23;;;;;;;;;;10197958;28;20037;-62
2020/12/11 02:57:01;;;;;;;39.73;9.80;;;;;;;;;;10201151;28;20039;-63
2020/12/11 03:01:59;;;;;;;28.90;11.13;;;;;;;;;;10188758;28;20038;-61
2020/12/11 03:06:56;;;;;;;30.27;11.17;;;;;;;;;;10193488;28;20058;-58
2020/12/11 03:11:53;;;;;;;23.60;9.03;;;;;;;;;;10191445;28;20048;-63
2020/12/11 03:16:51;;;;;;;36.90;12.70;;;;;;;;;;10200366;28;20034;-61
2020/12/11 03:21:48;;;;;;;40.47;12.63;;;;;;;;;;10199977;28;20532;-60
2020/12/11 03:26:45;;;;;;;32.63;10.70;;;;;;;;;;10199209;28;20038;-60
2020/12/11 03:31:43;;;;;;;40.00;12.53;;;;;;;;;;10198866;28;20038;-59
2020/12/11 03:36:40;;;;;;;38.50;13.20;;;;;;;;;;10194608;28;20093;-63
2020/12/11 03:41:37;;;;;;;24.10;9.40;;;;;;;;;;10188018;28;20048;-61
2020/12/11 03:46:35;;;;;;;35.90;11.33;;;;;;;;;;10195550;28;20023;-61
2020/12/11 03:51:32;;;;;;;41.67;13.43;;;;;;;;;;10178187;28;20030;-61
2020/12/11 03:56:30;;;;;;;36.70;14.57;;;;;;;;;;10185570;28;20113;-62
2020/12/11 04:01:27;;;;;;;27.80;10.87;;;;;;;;;;10188341;28;20050;-62
2020/12/11 04:06:25;;;;;;;32.27;13.20;;;;;;;;;;10188789;28;20050;-62
2020/12/11 04:11:22;;;;;;;39.17;14.00;;;;;;;;;;10190892;28;20476;-62
2020/12/11 04:16:20;;;;;;;31.73;11.97;;;;;;;;;;10191343;28;20313;-59
2020/12/11 04:21:17;;;;;;;40.20;14.77;;;;;;;;;;10196813;28;20046;-61
2020/12/11 04:26:14;;;;;;;44.90;17.23;;;;;;;;;;10171855;28;20741;-60
2020/12/11 04:31:12;;;;;;;41.47;13.10;;;;;;;;;;10166807;28;20038;-63
2020/12/11 04:36:15;;;;;;;32.50;14.03;;;;;;;;;;10185098;28;20307;-60
2020/12/11 04:41:14;;;;;;;31.73;12.18;;;;;;;;;;10191603;28;20286;-63
2020/12/11 04:46:11;;;;;;;33.63;11.13;;;;;;;;;;10201137;28;20058;-61
2020/12/11 04:51:09;;;;;;;40.40;15.00;;;;;;;;;;10195671;28;21275;-60
2020/12/11 04:56:06;;;;;;;26.90;11.13;;;;;;;;;;10172582;28;20038;-63
2020/12/11 05:01:04;;;;;;;26.30;10.13;;;;;;;;;;10177397;28;20049;-64
2020/12/11 05:06:02;;;;;;;40.88;13.02;;;;;;;;;;10192091;28;20058;-64
2020/12/11 05:11:00;;;;;;;40.92;15.05;;;;;;;;;;10196292;28;20030;-62
2020/12/11 05:16:06;;;;;;;36.83;15.53;;;;;;;;;;10202693;28;20048;-63
2020/12/11 05:21:14;;;;;;;40.80;13.73;;;;;;;;;;10193230;28;20041;-64
2020/12/11 05:26:20;;;;;;;35.42;14.32;;;;;;;;;;10195218;28;20038;-64
2020/12/11 05:31:18;;;;;;;41.22;14.00;;;;;;;;;;10187604;28;20436;-61
2020/12/11 05:36:18;;;;;;;39.92;14.25;;;;;;;;;;10206581;28;20042;-62
2020/12/11 05:41:30;;;;;;;39.40;14.77;;;;;;;;;;10173828;28;20034;-63
2020/12/11 05:46:28;;;;;;;41.13;13.48;;;;;;;;;;10188102;28;20042;-62
2020/12/11 05:51:35;;;;;;;36.08;14.10;;;;;;;;;;10199408;28;20417;-62
2020/12/11 05:56:33;;;;;;;43.90;18.23;;;;;;;;;;10175182;28;20110;-64
2020/12/11 06:01:30;;;;;;;43.33;16.70;;;;;;;;;;10221727;28;20042;-62
2020/12/11 06:06:29;;;;;;;36.53;13.53;;;;;;;;;;10195529;28;20038;-63
2020/12/11 06:11:30;;;;;;;30.23;13.70;;;;;;;;;;10190683;28;20049;-61
2020/12/11 06:16:30;;;;;;;38.42;12.82;;;;;;;;;;10224461;28;20184;-61
2020/12/11 06:21:28;;;;;;;37.58;13.68;;;;;;;;;;10223654;28;20038;-62
2020/12/11 06:26:25;;;;;;;37.93;12.90;;;;;;;;;;10206902;28;20046;-61
2020/12/11 06:31:22;;;;;;;32.53;11.87;;;;;;;;;;10207840;28;20505;-61
2020/12/11 06:36:20;;;;;;;34.27;11.53;;;;;;;;;;10186309;28;20039;-61
2020/12/11 06:41:26;;;;;;;34.67;12.63;;;;;;;;;;10195240;28;20742;-60
2020/12/11 06:46:24;;;;;;;33.42;12.68;;;;;;;;;;10206478;28;20034;-61
2020/12/11 06:51:22;;;;;;;37.47;14.27;;;;;;;;;;10206415;28;20686;-61
2020/12/11 06:56:38;;;;;;;33.27;12.80;;;;;;;;;;10200856;28;20042;-62
2020/12/11 07:01:36;;;;;;;31.00;12.02;;;;;;;;;;10192679;28;20045;-62
2020/12/11 07:06:33;;;;;;;34.70;14.53;;;;;;;;;;10204217;28;20027;-63
2020/12/11 07:11:31;;;;;;;37.57;12.77;;;;;;;;;;10188163;28;20030;-61
2020/12/11 07:16:28;;;;;;;37.80;14.60;;;;;;;;;;10170020;28;20096;-61
2020/12/11 07:21:28;;;;;;;38.17;14.03;;;;;;;;;;10236778;23;20079;-65
2020/12/11 07:26:26;;;;;;;22.90;9.55;;;;;;;;;;10264815;28;20044;-65
2020/12/11 07:31:25;;;;;;;30.13;13.30;;;;;;;;;;10248502;28;20041;-65
2020/12/11 07:36:23;;;;;;;38.80;14.80;;;;;;;;;;10256786;28;20124;-65
2020/12/11 07:41:22;;;;;;;41.55;14.10;;;;;;;;;;10258111;28;20305;-64
2020/12/11 07:46:20;;;;;;;36.13;13.02;;;;;;;;;;10263367;28;20609;-64
2020/12/11 07:51:20;;;;;;;27.73;12.82;;;;;;;;;;10277063;28;20560;-65
2020/12/11 07:56:18;;;;;;;38.80;12.68;;;;;;;;;;10270667;28;20037;-65
2020/12/11 08:01:15;;;;;;;32.10;10.50;;;;;;;;;;10266271;28;20084;-65
2020/12/11 08:06:13;;;;;;;32.97;13.70;;;;;;;;;;10290468;28;20033;-65
2020/12/11 08:11:22;;;;;;;29.10;12.37;;;;;;;;;;10323680;28;20113;-65
2020/12/11 08:16:21;;;;;;;37.80;12.98;;;;;;;;;;10322262;28;20040;-64
2020/12/11 08:21:31;;;;;;;34.58;14.02;;;;;;;;;;10325417;28;20052;-64
2020/12/11 08:26:38;;;;;;;31.50;13.27;;;;;;;;;;10261278;28;20049;-65
2020/12/11 08:31:42;;;;;;;37.38;16.65;;;;;;;;;;10285725;28;20127;-65
2020/12/11 08:36:40;;;;;;;32.22;12.68;;;;;;;;;;10276003;28;20052;-65
2020/12/11 08:41:48;;;;;;;31.27;13.13;;;;;;;;;;10278829;28;20553;-64
2020/12/11 08:52:02;;;;;;;32.63;13.68;;;;;;;;;;10265783;28;20109;-63
2020/12/11 08:56:59;;;;;;;40.50;16.57;;;;;;;;;;10265246;28;20059;-65
2020/12/11 09:01:59;;;;;;;37.73;14.37;;;;;;;;;;10270876;28;20418;-64
2020/12/11 09:06:56;;;;;;;36.75;14.32;;;;;;;;;;10267558;28;20850;-65
2020/12/11 09:11:54;;;;;;;35.67;14.67;;;;;;;;;;10275415;28;20153;-64
2020/12/11 09:16:51;;;;;;;32.40;13.53;;;;;;;;;;10271364;28;20030;-64
2020/12/11 09:21:48;;;;;;;30.37;11.33;;;;;;;;;;10282724;28;20034;-64
2020/12/11 09:26:46;;;;;;;36.70;13.77;;;;;;;;;;10282838;28;20048;-65
2020/12/11 09:31:46;;;;;;;33.95;13.02;;;;;;;;;;10286749;28;20480;-64
2020/12/11 09:36:44;;;;;;;32.33;12.68;;;;;;;;;;10292466;28;20059;-64
2020/12/11 09:41:48;;;;;;;29.17;12.93;;;;;;;;;;10285254;28;20033;-64
2020/12/11 09:57:17;;;;;;;26.67;12.95;;;;;;;;;;10272772;28;20073;-65
2020/12/11 10:07:15;;;;;;;34.33;13.77;;;;;;;;;;10284463;28;20033;-65
2020/12/11 10:12:13;;;;;;;33.83;12.13;;;;;;;;;;10307049;28;20411;-65
2020/12/11 10:17:11;;;;;;;33.85;12.65;;;;;;;;;;10279959;28;20068;-64
2020/12/11 10:22:08;;;;;;;24.88;11.20;;;;;;;;;;10287232;28;20435;-65
2020/12/11 10:27:06;;;;;;;34.53;13.27;;;;;;;;;;10283268;28;20500;-65
2020/12/11 10:32:04;;;;;;;23.43;8.67;;;;;;;;;;10285049;28;20029;-63
2020/12/11 10:37:08;;;;;;;22.40;8.82;;;;;;;;;;10280265;28;20060;-64
2020/12/11 10:42:06;;;;;;;29.58;11.15;;;;;;;;;;10274553;28;20034;-65
2020/12/11 10:47:03;;;;;;;27.83;10.40;;;;;;;;;;10273798;28;20044;-65
2020/12/11 10:52:01;;;;;;;28.37;11.73;;;;;;;;;;10280431;28;20496;-65
2020/12/11 10:56:58;;;;;;;32.60;14.23;;;;;;;;;;10247641;28;20037;-64
2020/12/11 11:01:56;;;;;;;35.00;13.63;;;;;;;;;;10273857;28;20044;-63
2020/12/11 11:07:01;;;;;;;33.57;11.67;;;;;;;;;;10275305;28;20495;-64
2020/12/11 11:12:20;;;;;;;30.58;11.77;;;;;;;;;;10280578;28;20041;-65
2020/12/11 11:28:02;;;;;;;27.85;12.63;;;;;;;;;;10263819;28;20026;-65
2020/12/11 11:33:00;;;;;;;26.00;11.57;;;;;;;;;;10277934;28;20072;-65
2020/12/11 11:37:58;;;;;;;29.67;12.77;;;;;;;;;;10270500;28;20072;-65
2020/12/11 11:42:55;;;;;;;22.93;10.77;;;;;;;;;;10257727;28;20295;-65
2020/12/11 11:47:55;;;;;;;30.60;12.23;;;;;;;;;;10262498;28;20405;-65
2020/12/11 11:53:12;;;;;;;24.52;10.07;;;;;;;;;;10284312;28;20037;-64
2020/12/11 11:58:10;;;;;;;28.83;12.48;;;;;;;;;;10272726;28;20045;-65
2020/12/11 12:03:07;;;;;;;29.80;12.43;;;;;;;;;;10276283;28;20514;-65
2020/12/11 12:08:05;;;;;;;22.47;10.80;;;;;;;;;;10268193;28;20037;-65
2020/12/11 12:13:02;;;;;;;24.47;11.63;;;;;;;;;;10277800;28;20113;-65
2020/12/11 12:18:06;;;;;;;19.60;9.27;;;;;;;;;;10271424;28;20148;-64
2020/12/11 12:38:01;;;;;;;29.25;10.68;;;;;;;;;;10279192;28;20038;-65
2020/12/11 12:43:07;;;;;;;31.17;12.93;;;;;;;;;;10272933;28;20048;-64
2020/12/11 12:48:05;;;;;;;25.15;11.48;;;;;;;;;;10265989;28;20179;-64
2020/12/11 12:53:03;;;;;;;29.67;11.07;;;;;;;;;;10275626;28;20144;-65
2020/12/11 12:58:00;;;;;;;26.03;10.20;;;;;;;;;;10257332;28;20305;-65
2020/12/11 13:08:04;;;;;;;17.35;8.57;;;;;;;;;;10287526;28;20074;-65
2020/12/11 13:13:07;;;;;;;20.93;9.60;;;;;;;;;;10287194;28;20061;-65
2020/12/11 13:18:05;;;;;;;21.52;9.85;;;;;;;;;;10268908;28;20034;-65
2020/12/11 13:28:18;;;;;;;18.88;8.32;;;;;;;;;;10284299;28;20521;-64
2020/12/11 13:33:15;;;;;;;24.23;10.27;;;;;;;;;;10270903;28;20064;-65
2020/12/11 13:38:13;;;;;;;26.23;9.80;;;;;;;;;;10275066;28;20499;-64
2020/12/11 13:43:10;;;;;;;17.50;8.73;;;;;;;;;;10283714;28;20037;-64
2020/12/11 13:48:07;;;;;;;21.30;9.93;;;;;;;;;;10276392;28;20026;-66
2020/12/11 13:53:05;;;;;;;26.33;9.57;;;;;;;;;;10276591;28;20246;-66
2020/12/11 13:58:02;;;;;;;23.27;8.93;;;;;;;;;;10271552;28;20400;-65
2020/12/11 14:03:02;;;;;;;24.07;8.07;;;;;;;;;;10264518;28;20038;-65
2020/12/11 14:08:00;;;;;;;16.20;8.52;;;;;;;;;;10283222;28;20460;-66
2020/12/11 14:12:58;;;;;;;25.88;8.25;;;;;;;;;;10248137;28;20029;-64
2020/12/11 14:18:06;;;;;;;22.23;9.10;;;;;;;;;;10270598;28;20044;-65
2020/12/11 14:23:12;;;;;;;27.65;9.43;;;;;;;;;;10273879;28;20041;-65
2020/12/11 14:28:10;;;;;;;17.77;6.97;;;;;;;;;;10277757;28;20385;-65
2020/12/11 14:33:10;;;;;;;18.53;7.70;;;;;;;;;;10269618;28;21037;-65
2020/12/11 14:38:59;;;;;;;31.15;12.38;;;;;;;;;;10276211;28;20064;-65
2020/12/11 14:43:31;;;;;;;42.15;16.35;;;;;;;;;;10273279;28;20073;-65
2020/12/11 14:48:29;;;;;;;49.10;15.52;;;;;;;;;;10258946;28;20068;-66
2020/12/11 14:53:26;;;;;;;47.33;17.10;;;;;;;;;;10253685;28;20071;-65
2020/12/11 14:58:24;;;;;;;42.40;14.87;;;;;;;;;;10275147;28;20091;-66
2020/12/11 15:03:21;;;;;;;38.53;12.93;;;;;;;;;;10265670;28;20107;-65
2020/12/11 15:08:19;;;;;;;35.77;13.77;;;;;;;;;;10279534;28;20037;-66
2020/12/11 15:13:16;;;;;;;25.30;11.20;;;;;;;;;;10263829;28;20037;-65
2020/12/11 15:18:13;;;;;;;29.07;11.30;;;;;;;;;;10265531;28;20487;-65
2020/12/11 15:23:11;;;;;;;29.60;10.93;;;;;;;;;;10272331;28;20499;-65
2020/12/11 15:28:08;;;;;;;28.63;11.13;;;;;;;;;;10281418;28;20037;-65
2020/12/11 15:33:06;;;;;;;31.37;12.47;;;;;;;;;;10274571;28;20392;-65
2020/12/11 15:38:03;;;;;;;29.57;10.57;;;;;;;;;;10267534;28;20038;-65
2020/12/11 15:43:00;;;;;;;28.57;12.43;;;;;;;;;;10279509;28;20041;-66
2020/12/11 15:47:58;;;;;;;30.57;12.63;;;;;;;;;;10266148;28;20048;-65
2020/12/11 15:52:56;;;;;;;28.57;10.37;;;;;;;;;;10269510;28;20459;-66
2020/12/11 15:57:54;;;;;;;33.00;12.15;;;;;;;;;;10269575;28;20040;-66
2020/12/11 16:02:51;;;;;;;21.23;8.55;;;;;;;;;;10273736;28;20029;-66
2020/12/11 16:07:49;;;;;;;32.60;11.93;;;;;;;;;;10261279;28;20104;-66
2020/12/11 16:12:46;;;;;;;34.43;14.30;;;;;;;;;;10270744;28;20044;-65
2020/12/11 16:17:44;;;;;;;37.57;15.50;;;;;;;;;;10271207;28;20061;-65
2020/12/11 16:22:41;;;;;;;36.73;13.77;;;;;;;;;;10273026;28;20076;-63
2020/12/11 16:27:39;;;;;;;40.80;15.53;;;;;;;;;;10278319;28;20570;-65
2020/12/11 16:32:36;;;;;;;28.97;11.43;;;;;;;;;;10262984;28;20575;-64
2020/12/11 16:37:33;;;;;;;30.73;13.37;;;;;;;;;;10285709;28;20041;-64
2020/12/11 16:42:31;;;;;;;26.03;10.80;;;;;;;;;;10271332;28;20045;-64
2020/12/11 16:47:31;;;;;;;31.87;14.00;;;;;;;;;;10275403;28;20075;-65
2020/12/11 16:52:29;;;;;;;37.38;14.15;;;;;;;;;;10271443;28;20037;-64
2020/12/11 16:57:31;;;;;;;41.10;14.67;;;;;;;;;;10276353;28;20448;-65
2020/12/11 17:02:38;;;;;;;32.22;10.88;;;;;;;;;;10273753;28;20038;-65
2020/12/11 17:07:39;;;;;;;31.15;13.52;;;;;;;;;;10271022;28;20033;-65
2020/12/11 17:12:37;;;;;;;36.78;14.65;;;;;;;;;;10276636;28;20072;-65
2020/12/11 17:17:34;;;;;;;31.10;12.03;;;;;;;;;;10285332;28;20067;-65
2020/12/11 17:22:32;;;;;;;32.27;14.07;;;;;;;;;;10265176;28;20107;-65
2020/12/11 17:27:30;;;;;;;21.90;10.77;;;;;;;;;;10273842;28;20025;-63
2020/12/11 17:33:31;;;;;;;25.53;11.97;;;;;;;;;;10274057;28;20119;-64
2020/12/11 17:37:53;;;;;;;32.50;11.93;;;;;;;;;;10260642;28;20399;-65
2020/12/11 17:42:51;;;;;;;23.53;10.43;;;;;;;;;;10279052;28;20037;-65
2020/12/11 17:47:48;;;;;;;31.77;12.57;;;;;;;;;;10271379;28;20030;-64
2020/12/11 17:52:47;;;;;;;24.20;9.30;;;;;;;;;;10278049;28;20053;-64
2020/12/11 17:57:48;;;;;;;29.17;11.30;;;;;;;;;;10260505;28;20044;-64
2020/12/11 18:02:46;;;;;;;28.75;11.07;;;;;;;;;;10273217;28;20508;-65
2020/12/11 18:07:46;;;;;;;28.60;11.43;;;;;;;;;;10267867;28;20395;-64
2020/12/11 18:12:44;;;;;;;24.65;10.68;;;;;;;;;;10273186;28;20566;-65
2020/12/11 18:17:41;;;;;;;25.33;9.67;;;;;;;;;;10275624;28;20407;-63
2020/12/11 18:22:42;;;;;;;34.33;12.23;;;;;;;;;;10274236;28;20045;-63
2020/12/11 18:27:45;;;;;;;28.55;11.20;;;;;;;;;;10264711;28;20025;-64
2020/12/11 18:32:43;;;;;;;36.42;13.30;;;;;;;;;;10276884;28;20423;-65
2020/12/11 18:37:41;;;;;;;26.90;10.87;;;;;;;;;;10272466;28;20096;-64
2020/12/11 18:42:38;;;;;;;17.33;9.07;;;;;;;;;;10271094;28;20393;-64
2020/12/11 18:47:35;;;;;;;31.20;12.17;;;;;;;;;;10272328;28;20029;-63
2020/12/11 18:52:33;;;;;;;26.07;11.37;;;;;;;;;;10267515;28;20543;-64
2020/12/11 18:57:33;;;;;;;24.93;10.07;;;;;;;;;;10267433;28;20158;-62
2020/12/11 19:02:30;;;;;;;34.08;13.45;;;;;;;;;;10271987;28;20033;-63
2020/12/11 19:07:28;;;;;;;29.47;12.77;;;;;;;;;;10265947;28;20040;-63
2020/12/11 19:12:25;;;;;;;18.07;8.97;;;;;;;;;;10252969;28;20663;-65
2020/12/11 19:17:23;;;;;;;31.33;13.77;;;;;;;;;;10273513;28;20068;-65
2020/12/11 19:22:20;;;;;;;24.73;9.83;;;;;;;;;;10257198;23;20053;-66
2020/12/11 19:27:17;;;;;;;26.07;9.27;;;;;;;;;;10240962;28;20061;-64
2020/12/11 19:32:15;;;;;;;31.70;11.33;;;;;;;;;;10249796;28;20526;-65
2020/12/11 19:37:12;;;;;;;24.50;10.80;;;;;;;;;;10248041;28;20041;-66
2020/12/11 19:42:10;;;;;;;32.90;12.00;;;;;;;;;;10227406;28;20085;-66
2020/12/11 19:47:08;;;;;;;27.77;11.60;;;;;;;;;;10237410;28;20678;-64
2020/12/11 19:52:08;;;;;;;27.83;12.13;;;;;;;;;;10251308;28;20466;-65
2020/12/11 19:57:06;;;;;;;28.38;11.60;;;;;;;;;;10213710;28;20046;-65
2020/12/11 20:02:03;;;;;;;25.00;12.30;;;;;;;;;;10211633;28;20047;-66
2020/12/11 20:12:11;;;;;;;25.50;9.75;;;;;;;;;;10241390;28;20052;-66
2020/12/11 20:17:10;;;;;;;32.97;13.90;;;;;;;;;;10240785;28;20138;-65
2020/12/11 20:22:08;;;;;;;22.00;12.18;;;;;;;;;;10231475;28;20042;-65
2020/12/11 20:27:06;;;;;;;17.13;7.88;;;;;;;;;;10243793;28;20026;-66
2020/12/11 20:32:03;;;;;;;21.37;10.10;;;;;;;;;;10213341;28;20034;-67
2020/12/11 20:37:01;;;;;;;26.33;12.00;;;;;;;;;;10247770;28;21917;-65
2020/12/11 20:41:59;;;;;;;22.97;10.87;;;;;;;;;;10239514;28;20554;-66
2020/12/11 20:46:57;;;;;;;33.15;11.65;;;;;;;;;;10243652;28;20034;-66
2020/12/11 20:51:54;;;;;;;30.40;13.27;;;;;;;;;;10218517;28;20036;-66
2020/12/11 20:56:52;;;;;;;31.83;12.20;;;;;;;;;;10214592;28;20038;-65
2020/12/11 21:01:52;;;;;;;23.53;9.80;;;;;;;;;;10180337;28;20026;-66
2020/12/11 21:06:50;;;;;;;28.20;12.35;;;;;;;;;;10198745;28;20085;-66
2020/12/11 21:11:48;;;;;;;29.08;12.73;;;;;;;;;;10186139;28;20031;-65
2020/12/11 21:16:47;;;;;;;28.53;12.60;;;;;;;;;;10185482;28;20035;-66
2020/12/11 21:21:45;;;;;;;25.25;12.90;;;;;;;;;;10182558;28;20089;-66
2020/12/11 21:26:42;;;;;;;28.30;11.77;;;;;;;;;;10203123;28;20095;-69
2020/12/11 21:31:42;;;;;;;25.30;11.07;;;;;;;;;;10193419;28;20054;-66
2020/12/11 21:36:40;;;;;;;28.17;12.65;;;;;;;;;;10196495;28;20035;-66
2020/12/11 21:41:37;;;;;;;25.80;10.77;;;;;;;;;;10212641;28;20042;-66
2020/12/11 21:46:35;;;;;;;26.83;11.43;;;;;;;;;;10229345;28;20042;-65
2020/12/11 21:51:32;;;;;;;25.90;11.70;;;;;;;;;;10216337;28;20038;-66
2020/12/11 21:56:30;;;;;;;30.13;12.67;;;;;;;;;;10183778;28;20050;-66
2020/12/11 22:01:27;;;;;;;29.47;12.23;;;;;;;;;;10203444;28;20035;-66
2020/12/11 22:06:24;;;;;;;24.13;9.67;;;;;;;;;;10190986;28;20085;-67
2020/12/11 22:11:22;;;;;;;25.00;11.13;;;;;;;;;;10209809;28;20049;-64
2020/12/11 22:16:19;;;;;;;28.57;11.67;;;;;;;;;;10183496;28;20575;-66
2020/12/11 22:21:17;;;;;;;32.10;10.73;;;;;;;;;;10193930;28;20050;-66
2020/12/11 22:26:14;;;;;;;28.40;12.03;;;;;;;;;;10198750;28;20042;-65
2020/12/11 22:31:11;;;;;;;36.17;14.13;;;;;;;;;;10191828;28;20046;-66
2020/12/11 22:36:09;;;;;;;23.40;11.50;;;;;;;;;;10201732;28;20042;-66
2020/12/11 22:41:09;;;;;;;28.00;11.57;;;;;;;;;;10210559;28;20047;-65
2020/12/11 22:46:10;;;;;;;26.60;11.77;;;;;;;;;;10200869;28;20042;-65
2020/12/11 22:51:08;;;;;;;32.55;12.60;;;;;;;;;;10208597;28;20046;-66
2020/12/11 22:56:05;;;;;;;23.17;9.10;;;;;;;;;;10194487;28;20042;-65
2020/12/11 23:01:02;;;;;;;26.27;9.70;;;;;;;;;;10188686;28;20041;-65
2020/12/11 23:06:00;;;;;;;23.77;10.67;;;;;;;;;;10199007;28;20046;-66
2020/12/11 23:10:57;;;;;;;21.97;10.13;;;;;;;;;;10190435;28;20570;-66
2020/12/11 23:15:56;;;;;;;31.50;12.43;;;;;;;;;;10204985;28;20056;-66
2020/12/11 23:20:54;;;;;;;30.77;11.13;;;;;;;;;;10207630;28;20484;-66
2020/12/11 23:25:52;;;;;;;23.27;11.00;;;;;;;;;;10251895;28;20096;-66
2020/12/11 23:30:49;;;;;;;31.17;11.80;;;;;;;;;;10248564;28;20050;-67
2020/12/11 23:35:47;;;;;;;32.17;11.38;;;;;;;;;;10239485;28;20153;-65
2020/12/11 23:40:45;;;;;;;27.97;10.67;;;;;;;;;;10253543;28;20050;-67
2020/12/11 23:45:43;;;;;;;30.33;12.07;;;;;;;;;;10228529;28;20176;-67
2020/12/11 23:50:42;;;;;;;39.15;15.73;;;;;;;;;;10220866;28;20049;-67
2020/12/11 23:55:39;;;;;;;25.40;11.80;;;;;;;;;;10237788;28;20044;-66
